sensor_id;sensor_type;location;lat;lon;timestamp;P1;durP1;ratioP1;P2;durP2;ratioP2
4377;SDS011;2203;53.686;9.994;2023-07-20T00:02:12;4.20;;;1.50;;
4377;SDS011;2203;53.686;9.994;2023-07-20T00:04:38;1.80;;;1.53;;
4377;SDS011;2203;53.686;9.994;2023-07-20T00:07:04;2.10;;;1.90;;
4377;SDS011;2203;53.686;9.994;2023-07-20T00:09:29;2.57;;;1.50;;
4377;SDS011;2203;53.686;9.994;2023-07-20T00:11:55;3.00;;;1.97;;
4377;SDS011;2203;53.686;9.994;2023-07-20T00:14:20;4.13;;;1.57;;
4377;SDS011;2203;53.686;9.994;2023-07-20T00:16:46;1.60;;;1.50;;
4377;SDS011;2203;53.686;9.994;2023-07-20T00:19:14;2.20;;;1.40;;
4377;SDS011;2203;53.686;9.994;2023-07-20T00:21:39;2.00;;;1.77;;
4377;SDS011;2203;53.686;9.994;2023-07-20T00:24:05;3.10;;;1.50;;
4377;SDS011;2203;53.686;9.994;2023-07-20T00:26:31;4.20;;;1.83;;
4377;SDS011;2203;53.686;9.994;2023-07-20T00:28:56;2.80;;;1.80;;
4377;SDS011;2203;53.686;9.994;2023-07-20T00:31:22;2.60;;;1.97;;
4377;SDS011;2203;53.686;9.994;2023-07-20T00:33:47;3.77;;;1.23;;
4377;SDS011;2203;53.686;9.994;2023-07-20T00:36:13;3.37;;;2.03;;
4377;SDS011;2203;53.686;9.994;2023-07-20T00:38:39;4.07;;;2.00;;
4377;SDS011;2203;53.686;9.994;2023-07-20T00:41:05;3.43;;;2.20;;
4377;SDS011;2203;53.686;9.994;2023-07-20T00:43:31;2.30;;;2.00;;
4377;SDS011;2203;53.686;9.994;2023-07-20T00:45:56;2.83;;;2.13;;
4377;SDS011;2203;53.686;9.994;2023-07-20T00:48:22;4.63;;;2.40;;
4377;SDS011;2203;53.686;9.994;2023-07-20T00:50:47;9.13;;;2.57;;
4377;SDS011;2203;53.686;9.994;2023-07-20T00:53:13;4.80;;;2.67;;
4377;SDS011;2203;53.686;9.994;2023-07-20T00:55:39;3.47;;;1.93;;
4377;SDS011;2203;53.686;9.994;2023-07-20T00:58:04;8.63;;;2.70;;
4377;SDS011;2203;53.686;9.994;2023-07-20T01:00:30;11.77;;;3.10;;
4377;SDS011;2203;53.686;9.994;2023-07-20T01:02:55;7.90;;;2.80;;
4377;SDS011;2203;53.686;9.994;2023-07-20T01:05:21;4.70;;;3.00;;
4377;SDS011;2203;53.686;9.994;2023-07-20T01:08:00;6.17;;;2.20;;
4377;SDS011;2203;53.686;9.994;2023-07-20T01:10:31;4.87;;;2.70;;
4377;SDS011;2203;53.686;9.994;2023-07-20T01:13:01;4.10;;;3.00;;
4377;SDS011;2203;53.686;9.994;2023-07-20T01:15:27;9.90;;;4.10;;
4377;SDS011;2203;53.686;9.994;2023-07-20T01:17:52;5.23;;;2.43;;
4377;SDS011;2203;53.686;9.994;2023-07-20T01:20:18;5.00;;;3.10;;
4377;SDS011;2203;53.686;9.994;2023-07-20T01:25:37;4.07;;;2.63;;
4377;SDS011;2203;53.686;9.994;2023-07-20T01:31:24;5.10;;;3.47;;
4377;SDS011;2203;53.686;9.994;2023-07-20T01:33:50;5.17;;;3.80;;
4377;SDS011;2203;53.686;9.994;2023-07-20T01:36:21;3.70;;;3.17;;
4377;SDS011;2203;53.686;9.994;2023-07-20T01:38:47;8.57;;;4.10;;
4377;SDS011;2203;53.686;9.994;2023-07-20T01:41:14;4.77;;;3.43;;
4377;SDS011;2203;53.686;9.994;2023-07-20T01:43:40;5.83;;;3.43;;
4377;SDS011;2203;53.686;9.994;2023-07-20T01:46:05;8.53;;;3.70;;
4377;SDS011;2203;53.686;9.994;2023-07-20T01:48:31;6.17;;;3.70;;
4377;SDS011;2203;53.686;9.994;2023-07-20T01:50:56;8.40;;;4.33;;
4377;SDS011;2203;53.686;9.994;2023-07-20T01:53:22;6.33;;;3.77;;
4377;SDS011;2203;53.686;9.994;2023-07-20T01:55:47;5.73;;;3.80;;
4377;SDS011;2203;53.686;9.994;2023-07-20T01:58:13;6.37;;;4.43;;
4377;SDS011;2203;53.686;9.994;2023-07-20T02:00:38;4.17;;;3.20;;
4377;SDS011;2203;53.686;9.994;2023-07-20T02:03:04;9.70;;;4.73;;
4377;SDS011;2203;53.686;9.994;2023-07-20T02:05:29;8.37;;;3.90;;
4377;SDS011;2203;53.686;9.994;2023-07-20T02:07:54;7.83;;;4.40;;
4377;SDS011;2203;53.686;9.994;2023-07-20T02:10:20;10.70;;;4.10;;
4377;SDS011;2203;53.686;9.994;2023-07-20T02:12:45;5.43;;;3.80;;
4377;SDS011;2203;53.686;9.994;2023-07-20T02:15:11;9.40;;;4.50;;
4377;SDS011;2203;53.686;9.994;2023-07-20T02:17:38;8.10;;;4.43;;
4377;SDS011;2203;53.686;9.994;2023-07-20T02:20:06;5.93;;;4.33;;
4377;SDS011;2203;53.686;9.994;2023-07-20T02:22:34;5.13;;;4.07;;
4377;SDS011;2203;53.686;9.994;2023-07-20T02:24:59;8.70;;;5.00;;
4377;SDS011;2203;53.686;9.994;2023-07-20T02:27:24;8.80;;;4.80;;
4377;SDS011;2203;53.686;9.994;2023-07-20T02:29:50;7.07;;;4.80;;
4377;SDS011;2203;53.686;9.994;2023-07-20T02:32:15;9.33;;;4.87;;
4377;SDS011;2203;53.686;9.994;2023-07-20T02:34:41;11.50;;;5.63;;
4377;SDS011;2203;53.686;9.994;2023-07-20T02:37:06;10.20;;;5.27;;
4377;SDS011;2203;53.686;9.994;2023-07-20T02:39:32;9.90;;;5.20;;
4377;SDS011;2203;53.686;9.994;2023-07-20T02:41:57;10.47;;;5.37;;
4377;SDS011;2203;53.686;9.994;2023-07-20T02:44:22;6.53;;;5.30;;
4377;SDS011;2203;53.686;9.994;2023-07-20T02:46:48;7.63;;;5.20;;
4377;SDS011;2203;53.686;9.994;2023-07-20T02:49:14;9.47;;;5.67;;
4377;SDS011;2203;53.686;9.994;2023-07-20T02:51:40;10.83;;;6.10;;
4377;SDS011;2203;53.686;9.994;2023-07-20T02:54:06;10.23;;;5.77;;
4377;SDS011;2203;53.686;9.994;2023-07-20T02:56:31;15.70;;;5.10;;
4377;SDS011;2203;53.686;9.994;2023-07-20T02:58:57;9.60;;;5.63;;
4377;SDS011;2203;53.686;9.994;2023-07-20T03:01:22;7.97;;;5.80;;
4377;SDS011;2203;53.686;9.994;2023-07-20T03:03:47;9.00;;;5.73;;
4377;SDS011;2203;53.686;9.994;2023-07-20T03:06:13;9.57;;;6.00;;
4377;SDS011;2203;53.686;9.994;2023-07-20T03:08:40;11.73;;;6.27;;
4377;SDS011;2203;53.686;9.994;2023-07-20T03:11:06;9.20;;;5.70;;
4377;SDS011;2203;53.686;9.994;2023-07-20T03:13:32;11.43;;;5.80;;
4377;SDS011;2203;53.686;9.994;2023-07-20T03:15:57;12.40;;;6.00;;
4377;SDS011;2203;53.686;9.994;2023-07-20T03:18:23;11.87;;;6.50;;
4377;SDS011;2203;53.686;9.994;2023-07-20T03:20:48;10.13;;;5.93;;
4377;SDS011;2203;53.686;9.994;2023-07-20T03:23:14;10.80;;;5.90;;
4377;SDS011;2203;53.686;9.994;2023-07-20T03:25:40;8.23;;;6.30;;
4377;SDS011;2203;53.686;9.994;2023-07-20T03:28:06;7.40;;;5.53;;
4377;SDS011;2203;53.686;9.994;2023-07-20T03:30:31;9.53;;;6.27;;
4377;SDS011;2203;53.686;9.994;2023-07-20T03:32:57;15.93;;;6.10;;
4377;SDS011;2203;53.686;9.994;2023-07-20T03:35:22;7.30;;;5.30;;
4377;SDS011;2203;53.686;9.994;2023-07-20T03:37:48;6.10;;;5.40;;
4377;SDS011;2203;53.686;9.994;2023-07-20T03:40:14;10.47;;;6.33;;
4377;SDS011;2203;53.686;9.994;2023-07-20T03:42:39;9.30;;;5.20;;
4377;SDS011;2203;53.686;9.994;2023-07-20T03:45:05;6.27;;;5.33;;
4377;SDS011;2203;53.686;9.994;2023-07-20T03:47:31;7.90;;;4.50;;
4377;SDS011;2203;53.686;9.994;2023-07-20T03:49:57;6.67;;;5.17;;
4377;SDS011;2203;53.686;9.994;2023-07-20T03:52:22;8.93;;;6.50;;
4377;SDS011;2203;53.686;9.994;2023-07-20T03:54:48;13.83;;;6.10;;
4377;SDS011;2203;53.686;9.994;2023-07-20T03:57:13;5.57;;;4.37;;
4377;SDS011;2203;53.686;9.994;2023-07-20T03:59:39;7.20;;;4.67;;
4377;SDS011;2203;53.686;9.994;2023-07-20T04:02:04;8.23;;;5.77;;
4377;SDS011;2203;53.686;9.994;2023-07-20T04:04:30;5.60;;;4.97;;
4377;SDS011;2203;53.686;9.994;2023-07-20T04:06:56;7.27;;;4.87;;
4377;SDS011;2203;53.686;9.994;2023-07-20T04:09:21;6.73;;;4.77;;
4377;SDS011;2203;53.686;9.994;2023-07-20T04:11:47;7.07;;;4.63;;
4377;SDS011;2203;53.686;9.994;2023-07-20T04:14:12;12.57;;;4.77;;
4377;SDS011;2203;53.686;9.994;2023-07-20T04:16:38;7.43;;;4.43;;
4377;SDS011;2203;53.686;9.994;2023-07-20T04:19:03;6.03;;;3.80;;
4377;SDS011;2203;53.686;9.994;2023-07-20T04:21:29;6.13;;;4.13;;
4377;SDS011;2203;53.686;9.994;2023-07-20T04:23:54;6.00;;;4.47;;
4377;SDS011;2203;53.686;9.994;2023-07-20T04:26:19;5.70;;;4.40;;
4377;SDS011;2203;53.686;9.994;2023-07-20T04:28:45;6.40;;;4.40;;
4377;SDS011;2203;53.686;9.994;2023-07-20T04:31:11;13.30;;;4.50;;
4377;SDS011;2203;53.686;9.994;2023-07-20T04:33:37;7.43;;;4.57;;
4377;SDS011;2203;53.686;9.994;2023-07-20T04:36:03;5.67;;;4.10;;
4377;SDS011;2203;53.686;9.994;2023-07-20T04:38:29;4.97;;;4.40;;
4377;SDS011;2203;53.686;9.994;2023-07-20T04:40:54;4.30;;;3.80;;
4377;SDS011;2203;53.686;9.994;2023-07-20T04:43:20;5.63;;;3.53;;
4377;SDS011;2203;53.686;9.994;2023-07-20T04:45:45;8.30;;;3.80;;
4377;SDS011;2203;53.686;9.994;2023-07-20T04:48:12;7.07;;;3.50;;
4377;SDS011;2203;53.686;9.994;2023-07-20T04:50:40;8.00;;;3.97;;
4377;SDS011;2203;53.686;9.994;2023-07-20T04:53:05;6.03;;;3.73;;
4377;SDS011;2203;53.686;9.994;2023-07-20T04:55:31;7.07;;;3.73;;
4377;SDS011;2203;53.686;9.994;2023-07-20T04:57:59;4.37;;;3.13;;
4377;SDS011;2203;53.686;9.994;2023-07-20T05:00:25;7.07;;;3.10;;
4377;SDS011;2203;53.686;9.994;2023-07-20T05:02:50;3.67;;;3.10;;
4377;SDS011;2203;53.686;9.994;2023-07-20T05:05:16;3.40;;;2.70;;
4377;SDS011;2203;53.686;9.994;2023-07-20T05:07:41;5.13;;;2.97;;
4377;SDS011;2203;53.686;9.994;2023-07-20T05:10:07;5.10;;;3.27;;
4377;SDS011;2203;53.686;9.994;2023-07-20T05:12:32;8.30;;;3.43;;
4377;SDS011;2203;53.686;9.994;2023-07-20T05:14:58;5.53;;;3.63;;
4377;SDS011;2203;53.686;9.994;2023-07-20T05:17:23;4.40;;;3.57;;
4377;SDS011;2203;53.686;9.994;2023-07-20T05:19:49;7.57;;;3.10;;
4377;SDS011;2203;53.686;9.994;2023-07-20T05:22:15;5.20;;;2.80;;
4377;SDS011;2203;53.686;9.994;2023-07-20T05:24:41;3.70;;;2.77;;
4377;SDS011;2203;53.686;9.994;2023-07-20T05:27:06;4.60;;;2.57;;
4377;SDS011;2203;53.686;9.994;2023-07-20T05:29:32;4.60;;;3.03;;
4377;SDS011;2203;53.686;9.994;2023-07-20T05:31:58;3.33;;;2.50;;
4377;SDS011;2203;53.686;9.994;2023-07-20T05:34:23;7.90;;;2.73;;
4377;SDS011;2203;53.686;9.994;2023-07-20T05:36:49;6.93;;;2.63;;
4377;SDS011;2203;53.686;9.994;2023-07-20T05:39:16;7.00;;;3.27;;
4377;SDS011;2203;53.686;9.994;2023-07-20T05:41:42;12.10;;;2.70;;
4377;SDS011;2203;53.686;9.994;2023-07-20T05:44:07;2.67;;;2.20;;
4377;SDS011;2203;53.686;9.994;2023-07-20T05:46:32;6.83;;;2.30;;
4377;SDS011;2203;53.686;9.994;2023-07-20T05:48:58;3.37;;;1.73;;
4377;SDS011;2203;53.686;9.994;2023-07-20T05:51:23;4.77;;;3.17;;
4377;SDS011;2203;53.686;9.994;2023-07-20T05:53:48;4.10;;;2.07;;
4377;SDS011;2203;53.686;9.994;2023-07-20T05:56:14;4.13;;;2.10;;
4377;SDS011;2203;53.686;9.994;2023-07-20T05:58:39;5.13;;;2.10;;
4377;SDS011;2203;53.686;9.994;2023-07-20T06:01:05;8.50;;;2.40;;
4377;SDS011;2203;53.686;9.994;2023-07-20T06:03:31;7.33;;;2.00;;
4377;SDS011;2203;53.686;9.994;2023-07-20T06:06:01;5.13;;;1.80;;
4377;SDS011;2203;53.686;9.994;2023-07-20T06:08:28;6.27;;;2.40;;
4377;SDS011;2203;53.686;9.994;2023-07-20T06:10:53;2.93;;;1.73;;
4377;SDS011;2203;53.686;9.994;2023-07-20T06:13:19;5.13;;;1.60;;
4377;SDS011;2203;53.686;9.994;2023-07-20T06:15:44;5.30;;;1.63;;
4377;SDS011;2203;53.686;9.994;2023-07-20T06:18:10;8.30;;;2.00;;
4377;SDS011;2203;53.686;9.994;2023-07-20T06:20:35;2.93;;;2.10;;
4377;SDS011;2203;53.686;9.994;2023-07-20T06:23:00;8.33;;;1.80;;
4377;SDS011;2203;53.686;9.994;2023-07-20T06:25:26;8.30;;;1.47;;
4377;SDS011;2203;53.686;9.994;2023-07-20T06:27:51;5.60;;;1.67;;
4377;SDS011;2203;53.686;9.994;2023-07-20T06:30:17;9.43;;;2.03;;
4377;SDS011;2203;53.686;9.994;2023-07-20T06:32:42;5.57;;;1.50;;
4377;SDS011;2203;53.686;9.994;2023-07-20T06:35:08;5.80;;;1.50;;
4377;SDS011;2203;53.686;9.994;2023-07-20T06:37:34;8.00;;;1.87;;
4377;SDS011;2203;53.686;9.994;2023-07-20T06:39:59;2.10;;;1.20;;
4377;SDS011;2203;53.686;9.994;2023-07-20T06:42:25;6.53;;;1.60;;
4377;SDS011;2203;53.686;9.994;2023-07-20T06:44:50;3.70;;;2.20;;
4377;SDS011;2203;53.686;9.994;2023-07-20T06:47:16;5.97;;;1.10;;
4377;SDS011;2203;53.686;9.994;2023-07-20T06:49:41;7.17;;;1.80;;
4377;SDS011;2203;53.686;9.994;2023-07-20T06:52:07;4.33;;;1.20;;
4377;SDS011;2203;53.686;9.994;2023-07-20T06:54:32;9.40;;;2.07;;
4377;SDS011;2203;53.686;9.994;2023-07-20T06:56:58;11.03;;;1.20;;
4377;SDS011;2203;53.686;9.994;2023-07-20T06:59:23;6.30;;;1.70;;
4377;SDS011;2203;53.686;9.994;2023-07-20T07:01:49;7.17;;;1.57;;
4377;SDS011;2203;53.686;9.994;2023-07-20T07:04:15;7.43;;;1.20;;
4377;SDS011;2203;53.686;9.994;2023-07-20T07:06:40;11.77;;;1.20;;
4377;SDS011;2203;53.686;9.994;2023-07-20T07:09:06;3.80;;;2.40;;
4377;SDS011;2203;53.686;9.994;2023-07-20T07:11:33;2.70;;;1.30;;
4377;SDS011;2203;53.686;9.994;2023-07-20T07:13:58;4.30;;;1.17;;
4377;SDS011;2203;53.686;9.994;2023-07-20T07:16:24;4.70;;;1.43;;
4377;SDS011;2203;53.686;9.994;2023-07-20T07:18:50;9.87;;;1.30;;
4377;SDS011;2203;53.686;9.994;2023-07-20T07:21:15;10.70;;;2.00;;
4377;SDS011;2203;53.686;9.994;2023-07-20T07:23:41;5.60;;;1.73;;
4377;SDS011;2203;53.686;9.994;2023-07-20T07:26:08;5.47;;;2.20;;
4377;SDS011;2203;53.686;9.994;2023-07-20T07:28:34;11.73;;;3.23;;
4377;SDS011;2203;53.686;9.994;2023-07-20T07:31:00;7.13;;;1.57;;
4377;SDS011;2203;53.686;9.994;2023-07-20T07:33:25;2.30;;;1.23;;
4377;SDS011;2203;53.686;9.994;2023-07-20T07:35:51;3.73;;;1.53;;
4377;SDS011;2203;53.686;9.994;2023-07-20T07:38:17;3.90;;;1.50;;
4377;SDS011;2203;53.686;9.994;2023-07-20T07:40:43;9.43;;;2.03;;
4377;SDS011;2203;53.686;9.994;2023-07-20T07:43:09;5.67;;;1.90;;
4377;SDS011;2203;53.686;9.994;2023-07-20T07:45:35;4.33;;;1.77;;
4377;SDS011;2203;53.686;9.994;2023-07-20T07:48:04;6.27;;;1.83;;
4377;SDS011;2203;53.686;9.994;2023-07-20T07:50:30;6.93;;;1.80;;
4377;SDS011;2203;53.686;9.994;2023-07-20T07:52:56;5.17;;;1.93;;
4377;SDS011;2203;53.686;9.994;2023-07-20T07:55:22;4.90;;;1.57;;
4377;SDS011;2203;53.686;9.994;2023-07-20T07:57:47;3.73;;;1.50;;
4377;SDS011;2203;53.686;9.994;2023-07-20T08:00:13;8.87;;;2.20;;
4377;SDS011;2203;53.686;9.994;2023-07-20T08:02:42;9.90;;;2.20;;
4377;SDS011;2203;53.686;9.994;2023-07-20T08:05:08;10.30;;;2.40;;
4377;SDS011;2203;53.686;9.994;2023-07-20T08:07:34;2.30;;;1.70;;
4377;SDS011;2203;53.686;9.994;2023-07-20T08:09:59;4.17;;;1.80;;
4377;SDS011;2203;53.686;9.994;2023-07-20T08:12:25;4.33;;;2.60;;
4377;SDS011;2203;53.686;9.994;2023-07-20T08:14:51;13.30;;;2.83;;
4377;SDS011;2203;53.686;9.994;2023-07-20T08:17:16;7.87;;;2.20;;
4377;SDS011;2203;53.686;9.994;2023-07-20T08:19:42;4.07;;;2.00;;
4377;SDS011;2203;53.686;9.994;2023-07-20T08:22:09;10.13;;;2.17;;
4377;SDS011;2203;53.686;9.994;2023-07-20T08:24:34;9.27;;;1.90;;
4377;SDS011;2203;53.686;9.994;2023-07-20T08:27:00;12.23;;;2.57;;
4377;SDS011;2203;53.686;9.994;2023-07-20T08:29:25;7.33;;;3.20;;
4377;SDS011;2203;53.686;9.994;2023-07-20T08:31:51;6.93;;;1.97;;
4377;SDS011;2203;53.686;9.994;2023-07-20T08:34:16;6.00;;;2.37;;
4377;SDS011;2203;53.686;9.994;2023-07-20T08:36:41;9.43;;;2.30;;
4377;SDS011;2203;53.686;9.994;2023-07-20T08:39:07;5.70;;;1.80;;
4377;SDS011;2203;53.686;9.994;2023-07-20T08:41:33;4.60;;;2.03;;
4377;SDS011;2203;53.686;9.994;2023-07-20T08:43:59;6.90;;;2.30;;
4377;SDS011;2203;53.686;9.994;2023-07-20T08:46:26;6.77;;;2.00;;
4377;SDS011;2203;53.686;9.994;2023-07-20T08:48:52;5.90;;;1.60;;
4377;SDS011;2203;53.686;9.994;2023-07-20T08:51:19;4.53;;;1.83;;
4377;SDS011;2203;53.686;9.994;2023-07-20T08:53:45;5.43;;;1.50;;
4377;SDS011;2203;53.686;9.994;2023-07-20T08:56:10;5.30;;;1.73;;
4377;SDS011;2203;53.686;9.994;2023-07-20T08:58:36;7.60;;;2.03;;
4377;SDS011;2203;53.686;9.994;2023-07-20T09:01:02;3.90;;;1.33;;
4377;SDS011;2203;53.686;9.994;2023-07-20T09:03:28;5.27;;;1.10;;
4377;SDS011;2203;53.686;9.994;2023-07-20T09:05:53;3.77;;;1.50;;
4377;SDS011;2203;53.686;9.994;2023-07-20T09:08:19;5.93;;;1.60;;
4377;SDS011;2203;53.686;9.994;2023-07-20T09:10:44;5.97;;;1.30;;
4377;SDS011;2203;53.686;9.994;2023-07-20T09:13:13;7.93;;;1.80;;
4377;SDS011;2203;53.686;9.994;2023-07-20T09:15:39;10.50;;;1.50;;
4377;SDS011;2203;53.686;9.994;2023-07-20T09:18:11;7.63;;;1.47;;
4377;SDS011;2203;53.686;9.994;2023-07-20T09:20:36;8.33;;;1.53;;
4377;SDS011;2203;53.686;9.994;2023-07-20T09:23:05;3.80;;;1.57;;
4377;SDS011;2203;53.686;9.994;2023-07-20T09:25:31;6.70;;;1.80;;
4377;SDS011;2203;53.686;9.994;2023-07-20T09:27:56;7.60;;;1.47;;
4377;SDS011;2203;53.686;9.994;2023-07-20T09:30:25;4.27;;;1.30;;
4377;SDS011;2203;53.686;9.994;2023-07-20T09:32:50;3.37;;;1.50;;
4377;SDS011;2203;53.686;9.994;2023-07-20T09:35:16;4.67;;;1.07;;
4377;SDS011;2203;53.686;9.994;2023-07-20T09:38:16;4.30;;;1.30;;
4377;SDS011;2203;53.686;9.994;2023-07-20T09:40:37;5.87;;;1.30;;
4377;SDS011;2203;53.686;9.994;2023-07-20T09:43:07;7.97;;;1.27;;
4377;SDS011;2203;53.686;9.994;2023-07-20T09:45:33;7.27;;;1.20;;
4377;SDS011;2203;53.686;9.994;2023-07-20T09:48:05;10.23;;;1.40;;
4377;SDS011;2203;53.686;9.994;2023-07-20T09:50:32;6.23;;;2.10;;
4377;SDS011;2203;53.686;9.994;2023-07-20T09:52:58;6.53;;;1.10;;
4377;SDS011;2203;53.686;9.994;2023-07-20T09:55:25;3.10;;;1.40;;
4377;SDS011;2203;53.686;9.994;2023-07-20T09:57:51;6.63;;;1.20;;
4377;SDS011;2203;53.686;9.994;2023-07-20T10:00:18;13.87;;;1.30;;
4377;SDS011;2203;53.686;9.994;2023-07-20T10:02:44;4.70;;;1.10;;
4377;SDS011;2203;53.686;9.994;2023-07-20T10:05:14;7.80;;;1.33;;
4377;SDS011;2203;53.686;9.994;2023-07-20T10:07:43;7.87;;;1.67;;
4377;SDS011;2203;53.686;9.994;2023-07-20T10:10:10;6.40;;;1.40;;
4377;SDS011;2203;53.686;9.994;2023-07-20T10:12:36;4.47;;;1.00;;
4377;SDS011;2203;53.686;9.994;2023-07-20T10:15:09;4.73;;;1.60;;
4377;SDS011;2203;53.686;9.994;2023-07-20T10:18:22;5.23;;;1.10;;
4377;SDS011;2203;53.686;9.994;2023-07-20T10:20:31;7.43;;;1.20;;
4377;SDS011;2203;53.686;9.994;2023-07-20T10:22:57;5.47;;;1.00;;
4377;SDS011;2203;53.686;9.994;2023-07-20T10:25:23;2.70;;;0.90;;
4377;SDS011;2203;53.686;9.994;2023-07-20T10:27:49;3.40;;;1.13;;
4377;SDS011;2203;53.686;9.994;2023-07-20T10:30:15;5.40;;;1.27;;
4377;SDS011;2203;53.686;9.994;2023-07-20T10:32:42;5.67;;;1.27;;
4377;SDS011;2203;53.686;9.994;2023-07-20T10:35:12;2.80;;;1.00;;
4377;SDS011;2203;53.686;9.994;2023-07-20T10:37:45;6.70;;;1.73;;
4377;SDS011;2203;53.686;9.994;2023-07-20T10:43:09;7.20;;;1.33;;
4377;SDS011;2203;53.686;9.994;2023-07-20T10:48:12;2.77;;;1.00;;
4377;SDS011;2203;53.686;9.994;2023-07-20T10:50:40;4.67;;;1.10;;
4377;SDS011;2203;53.686;9.994;2023-07-20T10:53:12;6.67;;;1.00;;
4377;SDS011;2203;53.686;9.994;2023-07-20T10:55:39;5.13;;;1.57;;
4377;SDS011;2203;53.686;9.994;2023-07-20T10:58:14;3.40;;;1.00;;
4377;SDS011;2203;53.686;9.994;2023-07-20T11:03:39;3.80;;;1.20;;
4377;SDS011;2203;53.686;9.994;2023-07-20T11:08:54;4.97;;;0.93;;
4377;SDS011;2203;53.686;9.994;2023-07-20T11:11:25;7.80;;;1.40;;
4377;SDS011;2203;53.686;9.994;2023-07-20T11:13:58;1.33;;;0.80;;
4377;SDS011;2203;53.686;9.994;2023-07-20T11:19:24;6.93;;;1.17;;
4377;SDS011;2203;53.686;9.994;2023-07-20T11:21:54;4.57;;;1.40;;
4377;SDS011;2203;53.686;9.994;2023-07-20T11:24:23;6.00;;;1.20;;
4377;SDS011;2203;53.686;9.994;2023-07-20T11:26:52;5.60;;;1.17;;
4377;SDS011;2203;53.686;9.994;2023-07-20T11:29:20;9.90;;;1.30;;
4377;SDS011;2203;53.686;9.994;2023-07-20T11:31:47;3.37;;;0.97;;
4377;SDS011;2203;53.686;9.994;2023-07-20T11:34:13;7.10;;;1.43;;
4377;SDS011;2203;53.686;9.994;2023-07-20T11:36:45;8.60;;;1.40;;
4377;SDS011;2203;53.686;9.994;2023-07-20T11:39:13;6.23;;;1.10;;
4377;SDS011;2203;53.686;9.994;2023-07-20T11:41:44;9.67;;;1.17;;
4377;SDS011;2203;53.686;9.994;2023-07-20T11:44:12;12.40;;;1.97;;
4377;SDS011;2203;53.686;9.994;2023-07-20T11:46:41;5.40;;;1.43;;
4377;SDS011;2203;53.686;9.994;2023-07-20T11:49:08;15.43;;;2.00;;
4377;SDS011;2203;53.686;9.994;2023-07-20T11:51:33;7.23;;;1.33;;
4377;SDS011;2203;53.686;9.994;2023-07-20T11:54:00;6.67;;;1.43;;
4377;SDS011;2203;53.686;9.994;2023-07-20T11:56:26;6.47;;;1.27;;
4377;SDS011;2203;53.686;9.994;2023-07-20T11:58:55;11.03;;;1.60;;
4377;SDS011;2203;53.686;9.994;2023-07-20T12:01:24;5.27;;;1.10;;
4377;SDS011;2203;53.686;9.994;2023-07-20T12:03:54;10.37;;;1.07;;
4377;SDS011;2203;53.686;9.994;2023-07-20T12:06:22;5.53;;;1.20;;
4377;SDS011;2203;53.686;9.994;2023-07-20T12:08:49;4.43;;;1.20;;
4377;SDS011;2203;53.686;9.994;2023-07-20T12:11:14;5.70;;;1.30;;
4377;SDS011;2203;53.686;9.994;2023-07-20T12:13:57;6.50;;;1.10;;
4377;SDS011;2203;53.686;9.994;2023-07-20T12:16:26;6.20;;;1.33;;
4377;SDS011;2203;53.686;9.994;2023-07-20T12:18:54;4.83;;;1.33;;
4377;SDS011;2203;53.686;9.994;2023-07-20T12:21:24;8.43;;;1.60;;
4377;SDS011;2203;53.686;9.994;2023-07-20T12:23:50;10.60;;;1.10;;
4377;SDS011;2203;53.686;9.994;2023-07-20T12:26:15;5.30;;;1.33;;
4377;SDS011;2203;53.686;9.994;2023-07-20T12:28:41;6.07;;;1.40;;
4377;SDS011;2203;53.686;9.994;2023-07-20T12:31:08;20.10;;;1.90;;
4377;SDS011;2203;53.686;9.994;2023-07-20T12:33:34;5.17;;;1.70;;
4377;SDS011;2203;53.686;9.994;2023-07-20T12:36:00;5.60;;;1.47;;
4377;SDS011;2203;53.686;9.994;2023-07-20T12:38:26;15.33;;;1.57;;
4377;SDS011;2203;53.686;9.994;2023-07-20T12:40:52;9.50;;;1.43;;
4377;SDS011;2203;53.686;9.994;2023-07-20T12:43:20;8.53;;;1.50;;
4377;SDS011;2203;53.686;9.994;2023-07-20T12:45:45;9.50;;;1.30;;
4377;SDS011;2203;53.686;9.994;2023-07-20T12:48:10;17.37;;;1.20;;
4377;SDS011;2203;53.686;9.994;2023-07-20T12:50:36;4.70;;;1.20;;
4377;SDS011;2203;53.686;9.994;2023-07-20T12:53:01;6.73;;;1.20;;
4377;SDS011;2203;53.686;9.994;2023-07-20T12:55:28;10.70;;;1.70;;
4377;SDS011;2203;53.686;9.994;2023-07-20T12:57:54;5.20;;;1.40;;
4377;SDS011;2203;53.686;9.994;2023-07-20T13:00:20;4.57;;;1.47;;
4377;SDS011;2203;53.686;9.994;2023-07-20T13:02:48;3.40;;;1.13;;
4377;SDS011;2203;53.686;9.994;2023-07-20T13:05:14;11.53;;;1.30;;
4377;SDS011;2203;53.686;9.994;2023-07-20T13:07:40;8.20;;;1.30;;
4377;SDS011;2203;53.686;9.994;2023-07-20T13:10:06;7.70;;;2.47;;
4377;SDS011;2203;53.686;9.994;2023-07-20T13:12:33;5.90;;;0.90;;
4377;SDS011;2203;53.686;9.994;2023-07-20T13:15:01;12.10;;;1.40;;
4377;SDS011;2203;53.686;9.994;2023-07-20T13:17:30;5.60;;;1.67;;
4377;SDS011;2203;53.686;9.994;2023-07-20T13:19:56;12.97;;;1.33;;
4377;SDS011;2203;53.686;9.994;2023-07-20T13:22:21;6.80;;;1.37;;
4377;SDS011;2203;53.686;9.994;2023-07-20T13:24:47;7.83;;;2.20;;
4377;SDS011;2203;53.686;9.994;2023-07-20T13:27:18;5.03;;;1.30;;
4377;SDS011;2203;53.686;9.994;2023-07-20T13:29:43;10.40;;;1.50;;
4377;SDS011;2203;53.686;9.994;2023-07-20T13:32:09;8.70;;;1.77;;
4377;SDS011;2203;53.686;9.994;2023-07-20T13:34:35;5.30;;;1.53;;
4377;SDS011;2203;53.686;9.994;2023-07-20T13:37:00;8.73;;;1.40;;
4377;SDS011;2203;53.686;9.994;2023-07-20T13:39:26;4.33;;;1.13;;
4377;SDS011;2203;53.686;9.994;2023-07-20T13:41:53;6.20;;;1.57;;
4377;SDS011;2203;53.686;9.994;2023-07-20T13:44:19;7.60;;;1.93;;
4377;SDS011;2203;53.686;9.994;2023-07-20T13:46:45;8.33;;;1.43;;
4377;SDS011;2203;53.686;9.994;2023-07-20T13:49:11;36.30;;;2.37;;
4377;SDS011;2203;53.686;9.994;2023-07-20T13:51:37;12.07;;;2.20;;
4377;SDS011;2203;53.686;9.994;2023-07-20T13:54:02;5.87;;;0.97;;
4377;SDS011;2203;53.686;9.994;2023-07-20T13:56:27;8.27;;;1.23;;
4377;SDS011;2203;53.686;9.994;2023-07-20T13:58:53;5.17;;;1.10;;
4377;SDS011;2203;53.686;9.994;2023-07-20T14:01:18;2.90;;;1.13;;
4377;SDS011;2203;53.686;9.994;2023-07-20T14:03:44;3.80;;;1.20;;
4377;SDS011;2203;53.686;9.994;2023-07-20T14:06:09;1.20;;;0.93;;
4377;SDS011;2203;53.686;9.994;2023-07-20T14:08:36;3.33;;;1.03;;
4377;SDS011;2203;53.686;9.994;2023-07-20T14:11:01;4.20;;;0.90;;
4377;SDS011;2203;53.686;9.994;2023-07-20T14:13:27;5.37;;;2.27;;
4377;SDS011;2203;53.686;9.994;2023-07-20T14:15:52;4.20;;;1.10;;
4377;SDS011;2203;53.686;9.994;2023-07-20T14:18:18;5.00;;;0.70;;
4377;SDS011;2203;53.686;9.994;2023-07-20T14:20:43;4.90;;;1.10;;
4377;SDS011;2203;53.686;9.994;2023-07-20T14:23:09;3.20;;;1.20;;
4377;SDS011;2203;53.686;9.994;2023-07-20T14:25:35;4.23;;;1.30;;
4377;SDS011;2203;53.686;9.994;2023-07-20T14:28:00;1.93;;;0.70;;
4377;SDS011;2203;53.686;9.994;2023-07-20T14:30:26;3.47;;;1.20;;
4377;SDS011;2203;53.686;9.994;2023-07-20T14:32:51;2.30;;;1.10;;
4377;SDS011;2203;53.686;9.994;2023-07-20T14:35:17;3.50;;;1.00;;
4377;SDS011;2203;53.686;9.994;2023-07-20T14:37:42;17.50;;;1.30;;
4377;SDS011;2203;53.686;9.994;2023-07-20T14:40:11;1.50;;;0.93;;
4377;SDS011;2203;53.686;9.994;2023-07-20T14:42:37;4.33;;;1.20;;
4377;SDS011;2203;53.686;9.994;2023-07-20T14:45:03;5.90;;;0.97;;
4377;SDS011;2203;53.686;9.994;2023-07-20T14:47:30;6.47;;;0.90;;
4377;SDS011;2203;53.686;9.994;2023-07-20T14:49:57;5.63;;;1.13;;
4377;SDS011;2203;53.686;9.994;2023-07-20T14:52:23;3.53;;;1.13;;
4377;SDS011;2203;53.686;9.994;2023-07-20T14:54:48;2.83;;;0.83;;
4377;SDS011;2203;53.686;9.994;2023-07-20T14:57:14;6.77;;;1.37;;
4377;SDS011;2203;53.686;9.994;2023-07-20T14:59:39;4.90;;;1.27;;
4377;SDS011;2203;53.686;9.994;2023-07-20T15:02:06;3.53;;;1.30;;
4377;SDS011;2203;53.686;9.994;2023-07-20T15:04:32;5.40;;;1.10;;
4377;SDS011;2203;53.686;9.994;2023-07-20T15:06:57;4.53;;;1.00;;
4377;SDS011;2203;53.686;9.994;2023-07-20T15:09:22;5.87;;;1.10;;
4377;SDS011;2203;53.686;9.994;2023-07-20T15:11:48;9.97;;;1.90;;
4377;SDS011;2203;53.686;9.994;2023-07-20T15:14:13;12.00;;;1.50;;
4377;SDS011;2203;53.686;9.994;2023-07-20T15:16:39;3.10;;;1.50;;
4377;SDS011;2203;53.686;9.994;2023-07-20T15:19:04;7.63;;;1.40;;
4377;SDS011;2203;53.686;9.994;2023-07-20T15:21:29;7.90;;;2.23;;
4377;SDS011;2203;53.686;9.994;2023-07-20T15:23:56;5.67;;;1.60;;
4377;SDS011;2203;53.686;9.994;2023-07-20T15:26:23;5.30;;;1.90;;
4377;SDS011;2203;53.686;9.994;2023-07-20T15:28:48;6.33;;;1.37;;